createdAt,value
2019-03-30T00:00:58.102Z,102802.46
2019-03-30T00:03:30.470Z,102806.35
2019-03-30T00:06:02.450Z,102799.09
2019-03-30T00:08:34.494Z,102795.13
2019-03-30T00:11:06.532Z,102793.69
2019-03-30T00:13:38.964Z,102795.71
2019-03-30T00:16:11.195Z,102797.95
2019-03-30T00:18:43.180Z,102798.07
2019-03-30T00:21:15.289Z,102800.05
2019-03-30T00:23:47.311Z,102800.29
2019-03-30T00:26:19.394Z,102795.27
2019-03-30T00:28:51.488Z,102800.80
2019-03-30T00:31:23.492Z,102798.02
2019-03-30T00:33:55.609Z,102793.78
2019-03-30T00:36:32.240Z,102797.30
2019-03-30T00:39:06.215Z,102796.97
2019-03-30T00:41:38.201Z,102798.33
2019-03-30T00:44:10.289Z,102791.73
2019-03-30T00:46:42.232Z,102792.25
2019-03-30T00:49:14.278Z,102780.32
2019-03-30T00:51:46.266Z,102777.16
2019-03-30T00:54:18.340Z,102777.73
2019-03-30T00:56:50.303Z,102770.25
2019-03-30T00:59:22.365Z,102767.05
2019-03-30T01:01:54.631Z,102763.34
2019-03-30T01:04:26.640Z,102768.51
2019-03-30T01:06:59.492Z,102769.13
2019-03-30T01:09:32.883Z,102768.34
2019-03-30T01:12:04.962Z,102771.25
2019-03-30T01:14:38.787Z,102772.03
2019-03-30T01:17:11.048Z,102767.38
2019-03-30T01:19:43.037Z,102768.66
2019-03-30T01:22:14.998Z,102769.27
2019-03-30T01:24:47.207Z,102768.41
2019-03-30T01:27:19.173Z,102768.97
2019-03-30T01:29:51.476Z,102761.67
2019-03-30T01:32:23.566Z,102759.23
2019-03-30T01:34:55.525Z,102754.91
2019-03-30T01:37:28.568Z,102754.64
2019-03-30T01:40:01.378Z,102752.42
2019-03-30T01:42:33.370Z,102748.44
2019-03-30T01:45:08.701Z,102745.88
2019-03-30T01:47:40.982Z,102737.09
2019-03-30T01:50:17.500Z,102732.78
2019-03-30T01:52:48.524Z,102730.00
2019-03-30T01:55:21.242Z,102728.86
2019-03-30T01:57:54.057Z,102730.48
2019-03-30T02:00:26.946Z,102725.52
2019-03-30T02:02:59.013Z,102731.01
2019-03-30T02:05:31.040Z,102726.69
2019-03-30T02:08:03.777Z,102728.95
2019-03-30T02:10:43.909Z,102725.00
2019-03-30T02:13:17.038Z,102721.34
2019-03-30T02:15:49.269Z,102719.31
2019-03-30T02:18:21.453Z,102714.91
2019-03-30T02:20:53.583Z,102709.89
2019-03-30T02:23:26.599Z,102718.03
2019-03-30T02:25:58.673Z,102712.41
2019-03-30T02:28:30.934Z,102714.63
2019-03-30T02:31:02.997Z,102712.23
2019-03-30T02:33:34.991Z,102703.68
2019-03-30T02:36:10.443Z,102702.96
2019-03-30T02:38:44.131Z,102695.70
2019-03-30T02:41:16.325Z,102697.09
2019-03-30T02:43:48.680Z,102693.06
2019-03-30T02:46:21.281Z,102689.04
2019-03-30T02:48:54.150Z,102687.93
2019-03-30T02:51:27.044Z,102686.25
2019-03-30T02:53:59.037Z,102687.61
2019-03-30T02:56:31.057Z,102685.25
2019-03-30T02:59:03.227Z,102678.17
2019-03-30T03:01:35.313Z,102672.78
2019-03-30T03:04:07.432Z,102672.63
2019-03-30T03:06:39.554Z,102680.81
2019-03-30T03:09:11.810Z,102677.66
2019-03-30T03:11:43.767Z,102677.98
2019-03-30T03:14:15.789Z,102676.55
2019-03-30T03:16:47.767Z,102677.13
2019-03-30T03:19:19.773Z,102676.36
2019-03-30T03:21:51.770Z,102672.40
2019-03-30T03:24:23.839Z,102672.78
2019-03-30T03:26:56.783Z,102665.42
2019-03-30T03:29:28.789Z,102662.86
2019-03-30T03:32:01.107Z,102655.83
2019-03-30T03:34:33.094Z,102659.52
2019-03-30T03:37:05.183Z,102655.33
2019-03-30T03:39:38.021Z,102646.23
2019-03-30T03:42:10.552Z,102646.62
2019-03-30T03:44:46.389Z,102650.63
2019-03-30T03:47:18.402Z,102650.53
2019-03-30T03:49:50.418Z,102643.28
2019-03-30T03:52:22.681Z,102644.85
2019-03-30T03:54:56.671Z,102644.10
2019-03-30T03:57:33.280Z,102644.50
2019-03-30T04:00:08.721Z,102637.60
2019-03-30T04:02:41.829Z,102634.77
2019-03-30T04:05:13.945Z,102631.83
2019-03-30T04:07:49.373Z,102632.41
2019-03-30T04:10:23.691Z,102627.81
2019-03-30T04:12:59.675Z,102626.94
2019-03-30T04:15:31.672Z,102621.28
2019-03-30T04:18:03.978Z,102623.23
2019-03-30T04:20:35.955Z,102620.48
2019-03-30T04:23:07.975Z,102615.53
2019-03-30T04:25:42.652Z,102622.54
2019-03-30T04:28:14.755Z,102614.48
2019-03-30T04:30:46.727Z,102614.56
2019-03-30T04:33:18.778Z,102608.49
2019-03-30T04:35:50.855Z,102607.09
2019-03-30T04:38:22.836Z,102608.91
2019-03-30T04:40:54.826Z,102614.36
2019-03-30T04:43:29.195Z,102613.05
2019-03-30T04:46:01.480Z,102612.42
2019-03-30T04:48:33.476Z,102608.66
2019-03-30T04:51:05.427Z,102610.17
2019-03-30T04:53:37.402Z,102604.84
2019-03-30T04:56:09.461Z,102601.61
2019-03-30T04:58:41.610Z,102603.53
2019-03-30T05:01:13.587Z,102600.38
2019-03-30T05:03:45.670Z,102602.84
2019-03-30T05:06:18.040Z,102597.81
2019-03-30T05:08:50.134Z,102603.78
2019-03-30T05:11:22.723Z,102605.56
2019-03-30T05:13:56.321Z,102604.59
2019-03-30T05:16:29.683Z,102602.89
2019-03-30T05:19:01.854Z,102603.83
2019-03-30T05:21:33.817Z,102600.64
2019-03-30T05:24:05.966Z,102599.97
2019-03-30T05:26:38.681Z,102598.31
2019-03-30T05:29:10.684Z,102597.67
2019-03-30T05:31:42.877Z,102593.64
2019-03-30T05:34:14.864Z,102596.48
2019-03-30T05:36:46.836Z,102595.05
2019-03-30T05:39:18.884Z,102595.70
2019-03-30T05:41:50.970Z,102594.14
2019-03-30T05:44:22.948Z,102588.69
2019-03-30T05:46:54.975Z,102591.08
2019-03-30T05:49:26.952Z,102594.55
2019-03-30T05:51:59.106Z,102591.34
2019-03-30T05:54:31.069Z,102587.16
2019-03-30T05:57:03.041Z,102586.78
2019-03-30T05:59:35.008Z,102587.31
2019-03-30T06:02:07.753Z,102582.30
2019-03-30T06:04:39.750Z,102580.67
2019-03-30T06:07:11.714Z,102576.14
2019-03-30T06:09:45.627Z,102575.13
2019-03-30T06:12:17.589Z,102578.73
2019-03-30T06:14:49.627Z,102578.19
2019-03-30T06:17:21.627Z,102575.35
2019-03-30T06:19:53.610Z,102574.62
2019-03-30T06:22:39.465Z,102570.32
2019-03-30T06:24:59.338Z,102571.77
2019-03-30T06:27:31.637Z,102569.41
2019-03-30T06:30:22.755Z,102562.31
2019-03-30T06:32:54.865Z,102566.50
2019-03-30T06:35:26.855Z,102562.04
2019-03-30T06:37:59.395Z,102558.81
2019-03-30T06:40:31.967Z,102552.27
2019-03-30T06:43:07.578Z,102555.86
2019-03-30T06:45:38.908Z,102554.63
2019-03-30T06:48:11.170Z,102555.84
2019-03-30T06:50:43.964Z,102546.88
2019-03-30T06:53:16.606Z,102548.00
2019-03-30T06:55:49.180Z,102546.74
2019-03-30T06:58:21.594Z,102544.27
2019-03-30T07:00:54.681Z,102546.23
2019-03-30T07:03:27.133Z,102539.78
2019-03-30T07:06:00.917Z,102537.63
2019-03-30T07:08:39.614Z,102539.33
2019-03-30T07:11:21.105Z,102528.63
2019-03-30T07:13:50.157Z,102536.27
2019-03-30T07:16:22.522Z,102533.00
2019-03-30T07:18:55.312Z,102532.53
2019-03-30T07:21:27.263Z,102536.94
2019-03-30T07:24:02.846Z,102539.41
2019-03-30T07:26:35.808Z,102541.02
2019-03-30T07:32:03.916Z,102547.30
2019-03-30T07:34:37.724Z,102541.77
2019-03-30T07:37:11.286Z,102541.23
2019-03-30T07:39:43.352Z,102539.77
2019-03-30T07:42:15.555Z,102537.19
2019-03-30T07:44:48.618Z,102534.48
2019-03-30T07:47:20.577Z,102531.52
2019-03-30T07:50:00.702Z,102534.58
2019-03-30T07:52:32.700Z,102529.30
2019-03-30T07:55:05.987Z,102522.16
2019-03-30T07:57:39.804Z,102514.76
2019-03-30T08:00:12.076Z,102520.62
2019-03-30T08:02:44.133Z,102515.78
2019-03-30T08:05:16.596Z,102512.61
2019-03-30T08:07:49.008Z,102514.16
2019-03-30T08:10:22.817Z,102503.93
2019-03-30T08:12:57.908Z,102508.47
2019-03-30T08:15:31.507Z,102508.55
2019-03-30T08:18:05.718Z,102510.07
2019-03-30T08:20:52.888Z,102509.58
2019-03-30T08:23:24.914Z,102500.87
2019-03-30T08:25:57.262Z,102498.30
2019-03-30T08:28:29.383Z,102494.37
2019-03-30T08:31:02.970Z,102495.80
2019-03-30T08:33:40.880Z,102489.45
2019-03-30T08:36:15.593Z,102490.64
2019-03-30T08:38:47.867Z,102489.81
2019-03-30T08:41:20.008Z,102481.86
2019-03-30T08:43:52.401Z,102481.06
2019-03-30T08:46:24.533Z,102475.21
2019-03-30T08:48:56.551Z,102470.75
2019-03-30T08:51:30.025Z,102472.41
2019-03-30T08:54:02.601Z,102461.87
2019-03-30T08:56:35.209Z,102460.39
2019-03-30T08:59:07.255Z,102457.37
2019-03-30T09:01:39.316Z,102454.44
2019-03-30T09:04:11.378Z,102450.92
2019-03-30T09:06:43.924Z,102445.31
2019-03-30T09:09:15.952Z,102445.83
2019-03-30T09:11:48.092Z,102436.87
2019-03-30T09:14:20.263Z,102440.53
2019-03-30T09:16:55.500Z,102439.34
2019-03-30T09:19:27.530Z,102430.09
2019-03-30T09:22:01.303Z,102422.28
2019-03-30T09:24:34.883Z,102418.62
2019-03-30T09:27:07.464Z,102415.80
2019-03-30T09:29:39.629Z,102418.05
2019-03-30T09:32:14.582Z,102412.89
2019-03-30T09:34:46.395Z,102407.78
2019-03-30T09:37:18.564Z,102405.39
2019-03-30T09:39:50.618Z,102403.14
2019-03-30T09:42:22.685Z,102404.36
2019-03-30T09:44:55.087Z,102402.62
2019-03-30T09:47:27.141Z,102394.27
2019-03-30T09:50:02.247Z,102392.28
2019-03-30T09:52:32.900Z,102393.17
2019-03-30T09:55:07.635Z,102388.17
2019-03-30T09:57:39.718Z,102386.25
2019-03-30T10:00:16.962Z,102387.40
2019-03-30T10:02:49.036Z,102381.81
2019-03-30T10:05:21.140Z,102374.66
2019-03-30T10:07:53.503Z,102375.49
2019-03-30T10:10:25.841Z,102374.88
2019-03-30T10:12:57.904Z,102373.11
2019-03-30T10:15:29.870Z,102376.60
2019-03-30T10:18:01.859Z,102375.00
2019-03-30T10:20:33.910Z,102370.72
2019-03-30T10:23:06.412Z,102361.52
2019-03-30T10:25:38.695Z,102357.27
2019-03-30T10:28:10.739Z,102354.28
2019-03-30T10:30:42.877Z,102349.29
2019-03-30T10:33:15.607Z,102348.35
2019-03-30T10:35:47.635Z,102347.78
2019-03-30T10:38:19.805Z,102338.70
2019-03-30T10:40:52.726Z,102337.29
2019-03-30T10:43:24.764Z,102332.98
2019-03-30T10:45:57.076Z,102328.17
2019-03-30T10:48:29.212Z,102328.87
2019-03-30T10:51:01.579Z,102320.94
2019-03-30T10:53:33.855Z,102313.20
2019-03-30T10:56:05.957Z,102316.98
2019-03-30T10:58:38.915Z,102310.67
2019-03-30T11:01:10.953Z,102304.77
2019-03-30T11:03:43.036Z,102295.05
2019-03-30T11:06:17.156Z,102298.39
2019-03-30T11:08:49.619Z,102294.00
2019-03-30T11:11:22.065Z,102284.70
2019-03-30T11:13:54.451Z,102293.38
2019-03-30T11:16:27.002Z,102281.16
2019-03-30T11:18:59.082Z,102282.09
2019-03-30T11:21:37.256Z,102287.17
2019-03-30T11:24:09.446Z,102276.28
2019-03-30T11:26:41.409Z,102276.09
2019-03-30T11:29:13.381Z,102267.06
2019-03-30T11:31:46.023Z,102261.09
2019-03-30T11:34:25.689Z,102259.95
2019-03-30T11:36:57.146Z,102260.84
2019-03-30T11:39:29.208Z,102253.83
2019-03-30T11:42:01.281Z,102256.63
2019-03-30T11:44:33.596Z,102249.41
2019-03-30T11:47:05.619Z,102245.55
2019-03-30T11:52:36.175Z,102244.28
2019-03-30T11:55:21.135Z,102224.56
2019-03-30T11:57:43.454Z,102229.22
2019-03-30T12:00:16.272Z,102225.73
2019-03-30T12:02:50.063Z,102222.50
2019-03-30T12:05:22.420Z,102215.55
2019-03-30T12:07:54.483Z,102211.17
2019-03-30T12:10:26.810Z,102192.97
2019-03-30T12:12:59.098Z,102198.94
2019-03-30T12:15:31.168Z,102199.34
2019-03-30T12:18:03.177Z,102197.67
2019-03-30T12:20:38.877Z,102185.55
2019-03-30T12:23:11.233Z,102183.49
2019-03-30T12:25:43.806Z,102175.38
2019-03-30T12:28:16.132Z,102175.56
2019-03-30T12:30:48.135Z,102177.94
2019-03-30T12:33:20.204Z,102172.41
2019-03-30T12:35:52.196Z,102160.56
2019-03-30T12:38:24.315Z,102156.05
2019-03-30T12:40:56.647Z,102163.91
2019-03-30T12:43:28.788Z,102152.09
2019-03-30T12:46:00.787Z,102152.31
2019-03-30T12:48:33.844Z,102149.55
2019-03-30T12:51:06.834Z,102134.86
2019-03-30T12:53:49.632Z,102138.23
2019-03-30T12:56:12.672Z,102129.45
2019-03-30T12:58:45.049Z,102130.25
2019-03-30T13:01:17.777Z,102128.84
2019-03-30T13:03:51.195Z,102125.70
2019-03-30T13:06:23.555Z,102124.36
2019-03-30T13:08:56.104Z,102125.42
2019-03-30T13:11:28.261Z,102122.72
2019-03-30T13:14:00.441Z,102113.06
2019-03-30T13:16:34.825Z,102108.81
2019-03-30T13:19:07.053Z,102112.72
2019-03-30T13:21:52.088Z,102106.55
2019-03-30T13:24:13.100Z,102106.78
2019-03-30T13:26:45.195Z,102100.05
2019-03-30T13:29:17.342Z,102096.46
2019-03-30T13:31:49.450Z,102095.00
2019-03-30T13:34:21.502Z,102094.86
2019-03-30T13:36:53.465Z,102083.28
2019-03-30T13:39:25.630Z,102071.58
2019-03-30T13:41:57.710Z,102077.05
2019-03-30T13:44:30.210Z,102068.98
2019-03-30T13:47:02.745Z,102072.78
2019-03-30T13:49:34.724Z,102064.44
2019-03-30T13:52:06.763Z,102069.34
2019-03-30T13:54:39.163Z,102059.22
2019-03-30T13:57:11.752Z,102057.80
2019-03-30T13:59:44.710Z,102045.94
2019-03-30T14:02:16.692Z,102055.22
2019-03-30T14:04:52.051Z,102055.69
2019-03-30T14:07:22.853Z,102055.33
2019-03-30T14:09:55.533Z,102047.36
2019-03-30T14:12:29.927Z,102042.84
2019-03-30T14:15:04.587Z,102038.92
2019-03-30T14:17:37.590Z,102045.27
2019-03-30T14:20:10.383Z,102043.09
2019-03-30T14:22:42.495Z,102033.69
2019-03-30T14:25:15.293Z,102035.58
2019-03-30T14:27:48.935Z,102032.97
2019-03-30T14:30:21.288Z,102029.84
2019-03-30T14:32:53.329Z,102026.41
2019-03-30T14:35:25.980Z,102024.41
2019-03-30T14:37:58.322Z,102026.03
2019-03-30T14:40:30.530Z,102022.17
2019-03-30T14:43:02.570Z,102016.37
2019-03-30T14:45:34.768Z,102010.95
2019-03-30T14:48:07.622Z,102010.83
2019-03-30T14:50:39.692Z,102005.53
2019-03-30T14:53:11.909Z,101991.21
2019-03-30T14:55:44.073Z,102001.78
2019-03-30T14:58:16.472Z,101999.17
2019-03-30T15:00:49.042Z,101994.98
2019-03-30T15:03:21.195Z,102006.41
2019-03-30T15:05:53.354Z,101989.29
2019-03-30T15:08:26.551Z,101993.01
2019-03-30T15:10:59.249Z,101987.25
2019-03-30T15:13:34.314Z,101986.25
2019-03-30T15:16:06.678Z,101988.95
2019-03-30T15:18:39.061Z,101976.02
2019-03-30T15:21:11.093Z,101977.30
2019-03-30T15:23:43.108Z,101973.18
2019-03-30T15:26:15.181Z,101975.62
2019-03-30T15:28:47.327Z,101972.61
2019-03-30T15:31:19.446Z,101973.31
2019-03-30T15:33:53.346Z,101976.75
2019-03-30T15:36:25.572Z,101966.23
2019-03-30T15:38:58.036Z,101961.55
2019-03-30T15:41:30.553Z,101962.22
2019-03-30T15:44:02.683Z,101959.19
2019-03-30T15:46:36.643Z,101962.60
2019-03-30T15:49:09.831Z,101960.29
2019-03-30T15:51:42.108Z,101958.80
2019-03-30T15:54:14.254Z,101956.55
2019-03-30T15:56:46.549Z,101956.14
2019-03-30T15:59:18.580Z,101954.57
2019-03-30T16:01:54.401Z,101954.22
2019-03-30T16:04:26.825Z,101956.11
2019-03-30T16:06:59.132Z,101960.65
2019-03-30T16:09:31.208Z,101960.72
2019-03-30T16:12:09.200Z,101953.34
2019-03-30T16:14:57.344Z,101956.86
2019-03-30T16:17:30.737Z,101957.62
2019-03-30T16:20:03.389Z,101955.46
2019-03-30T16:22:35.939Z,101952.39
2019-03-30T16:25:08.514Z,101958.33
2019-03-30T16:27:41.947Z,101955.03
2019-03-30T16:30:14.565Z,101953.05
2019-03-30T16:32:46.685Z,101954.10
2019-03-30T16:35:19.610Z,101954.27
2019-03-30T16:37:51.678Z,101953.88
2019-03-30T16:40:23.738Z,101954.25
2019-03-30T16:42:56.079Z,101945.95
2019-03-30T16:45:28.181Z,101951.87
2019-03-30T16:48:04.620Z,101953.23
2019-03-30T16:50:37.068Z,101955.37
2019-03-30T16:53:09.278Z,101956.41
2019-03-30T16:55:42.082Z,101957.33
2019-03-30T16:58:14.785Z,101953.83
2019-03-30T17:00:56.249Z,101953.71
2019-03-30T17:03:20.849Z,101954.70
2019-03-30T17:05:53.228Z,101954.86
2019-03-30T17:08:25.609Z,101947.65
2019-03-30T17:10:57.704Z,101942.09
2019-03-30T17:13:30.040Z,101939.81
2019-03-30T17:16:02.751Z,101937.52
2019-03-30T17:18:34.755Z,101938.69
2019-03-30T17:21:09.005Z,101939.42
2019-03-30T17:23:41.934Z,101935.83
2019-03-30T17:26:15.699Z,101943.93
2019-03-30T17:28:48.304Z,101942.17
2019-03-30T17:31:20.665Z,101947.33
2019-03-30T17:33:52.799Z,101945.75
2019-03-30T17:36:25.203Z,101952.67
2019-03-30T17:39:00.067Z,101955.31
2019-03-30T17:41:32.246Z,101952.34
2019-03-30T17:44:04.781Z,101949.25
2019-03-30T17:46:37.704Z,101952.70
2019-03-30T17:49:09.801Z,101951.08
2019-03-30T17:51:41.813Z,101953.89
2019-03-30T17:54:15.437Z,101951.69
2019-03-30T17:56:50.278Z,101954.47
2019-03-30T17:59:23.777Z,101958.69
2019-03-30T18:01:56.075Z,101953.67
2019-03-30T18:04:28.629Z,101956.61
2019-03-30T18:07:00.678Z,101953.40
2019-03-30T18:09:32.725Z,101957.55
2019-03-30T18:12:04.763Z,101957.66
2019-03-30T18:14:36.792Z,101962.41
2019-03-30T18:17:08.791Z,101961.14
2019-03-30T18:19:42.331Z,101964.09
2019-03-30T18:22:15.452Z,101959.83
2019-03-30T18:24:47.961Z,101962.84
2019-03-30T18:27:19.971Z,101963.27
2019-03-30T18:29:52.167Z,101966.09
2019-03-30T18:32:24.926Z,101961.28
2019-03-30T18:34:58.031Z,101963.31
2019-03-30T18:37:30.642Z,101966.96
2019-03-30T18:40:03.194Z,101979.50
2019-03-30T18:42:36.674Z,101993.76
2019-03-30T18:45:12.092Z,101992.02
2019-03-30T18:47:45.109Z,101985.52
2019-03-30T18:50:18.234Z,101991.30
2019-03-30T18:52:51.181Z,101988.84
2019-03-30T18:55:25.946Z,101989.13
2019-03-30T18:57:57.977Z,101988.50
2019-03-30T19:00:30.049Z,101997.80
2019-03-30T19:03:02.114Z,101996.14
2019-03-30T19:05:34.385Z,101992.70
2019-03-30T19:08:06.452Z,101994.38
2019-03-30T19:10:38.531Z,101996.14
2019-03-30T19:13:10.584Z,101995.59
2019-03-30T19:15:42.970Z,101991.22
2019-03-30T19:18:15.197Z,101990.63
2019-03-30T19:20:47.297Z,101984.34
2019-03-30T19:23:19.660Z,101988.63
2019-03-30T19:25:51.908Z,101984.24
2019-03-30T19:28:24.261Z,101982.18
2019-03-30T19:30:56.638Z,101976.66
2019-03-30T19:33:28.673Z,101975.56
2019-03-30T19:36:00.753Z,101983.48
2019-03-30T19:38:33.329Z,101982.07
2019-03-30T19:41:05.612Z,101981.75
2019-03-30T19:43:38.330Z,101977.75
2019-03-30T19:46:13.364Z,101985.51
2019-03-30T19:48:45.444Z,101980.22
2019-03-30T19:51:17.722Z,101980.78
2019-03-30T19:53:50.239Z,101976.63
2019-03-30T19:56:22.267Z,101974.04
2019-03-30T19:58:54.258Z,101978.98
2019-03-30T20:01:26.389Z,101977.95
2019-03-30T20:03:58.427Z,101989.81
2019-03-30T20:06:30.772Z,101993.98
2019-03-30T20:09:05.363Z,101990.03
2019-03-30T20:11:38.334Z,101991.14
2019-03-30T20:14:10.836Z,101992.30
2019-03-30T20:16:43.002Z,101988.75
2019-03-30T20:19:15.180Z,101987.72
2019-03-30T20:21:47.427Z,101994.50
2019-03-30T20:24:20.266Z,101995.39
2019-03-30T20:26:52.302Z,101996.16
2019-03-30T20:29:26.722Z,101997.10
2019-03-30T20:32:04.852Z,102004.62
2019-03-30T20:34:37.843Z,102008.74
2019-03-30T20:37:11.567Z,102009.56
2019-03-30T20:39:43.848Z,102013.41
2019-03-30T20:42:19.585Z,102007.44
2019-03-30T20:44:53.395Z,102012.16
2019-03-30T20:47:28.465Z,102011.72
2019-03-30T20:50:02.680Z,102009.42
2019-03-30T20:52:34.956Z,102010.81
2019-03-30T20:55:09.291Z,102019.20
2019-03-30T20:57:41.445Z,102007.80
2019-03-30T21:00:16.903Z,102008.30
2019-03-30T21:02:50.247Z,102014.55
2019-03-30T21:05:23.773Z,102015.93
2019-03-30T21:07:55.845Z,102023.42
2019-03-30T21:10:31.855Z,102023.82
2019-03-30T21:13:05.500Z,102022.50
2019-03-30T21:15:39.383Z,102030.99
2019-03-30T21:18:12.889Z,102028.59
2019-03-30T21:20:48.447Z,102039.37
2019-03-30T21:23:25.462Z,102043.95
2019-03-30T21:25:59.725Z,102046.92
2019-03-30T21:28:32.352Z,102050.30
2019-03-30T21:31:04.523Z,102054.84
2019-03-30T21:33:36.612Z,102058.45
2019-03-30T21:36:11.500Z,102059.28
2019-03-30T21:38:47.750Z,102062.38
2019-03-30T21:41:21.952Z,102060.33
2019-03-30T21:43:55.700Z,102056.32
2019-03-30T21:46:32.589Z,102056.45
2019-03-30T21:49:05.764Z,102062.11
2019-03-30T21:51:42.576Z,102067.33
2019-03-30T21:54:14.817Z,102066.11
2019-03-30T21:56:46.862Z,102065.15
2019-03-30T21:59:19.022Z,102067.94
2019-03-30T22:01:51.106Z,102062.90
2019-03-30T22:04:23.474Z,102069.11
2019-03-30T22:07:03.623Z,102073.86
2019-03-30T22:09:39.729Z,102070.14
2019-03-30T22:12:11.791Z,102075.66
2019-03-30T22:14:45.198Z,102078.29
2019-03-30T22:17:17.222Z,102078.44
2019-03-30T22:19:49.253Z,102077.39
2019-03-30T22:22:21.353Z,102074.40
2019-03-30T22:24:53.465Z,102085.05
2019-03-30T22:27:25.485Z,102079.79
2019-03-30T22:29:57.534Z,102080.96
2019-03-30T22:32:30.471Z,102082.55
2019-03-30T22:35:02.491Z,102081.43
2019-03-30T22:37:34.680Z,102075.42
2019-03-30T22:40:10.057Z,102073.55
2019-03-30T22:42:43.707Z,102075.83
2019-03-30T22:45:16.214Z,102077.94
2019-03-30T22:47:48.810Z,102078.86
2019-03-30T22:50:20.943Z,102085.08
2019-03-30T22:52:55.647Z,102080.04
2019-03-30T22:55:29.889Z,102074.45
2019-03-30T22:58:02.108Z,102078.24
2019-03-30T23:00:39.087Z,102080.80
2019-03-30T23:03:11.714Z,102086.41
2019-03-30T23:05:45.431Z,102093.41
2019-03-30T23:08:17.607Z,102095.08
2019-03-30T23:10:49.693Z,102097.09
2019-03-30T23:13:21.714Z,102098.61
2019-03-30T23:15:53.827Z,102104.72
2019-03-30T23:18:26.149Z,102097.88
2019-03-30T23:20:58.208Z,102106.62
2019-03-30T23:23:30.332Z,102106.62
2019-03-30T23:26:02.677Z,102110.20
2019-03-30T23:28:34.823Z,102103.45
2019-03-30T23:31:08.908Z,102108.94
2019-03-30T23:33:41.341Z,102106.06
2019-03-30T23:36:16.141Z,102097.59
2019-03-30T23:38:47.641Z,102108.13
2019-03-30T23:41:19.735Z,102100.86
2019-03-30T23:43:51.938Z,102102.88
2019-03-30T23:46:24.114Z,102107.02
2019-03-30T23:48:56.513Z,102098.36
2019-03-30T23:51:28.846Z,102111.59
2019-03-30T23:54:02.676Z,102114.38
2019-03-30T23:56:34.999Z,102116.78
2019-03-30T23:59:07.102Z,102115.57
